Meath Environmental Platform

Observations for Trim Market St

Time AQI Temp °C Hum % Pres Pa CO μg/m³ H₂S μg/m³ NO μg/m³ NO₂ μg/m³ O₃ μg/m³ SO₂ μg/m³ PM1 μg/m³ PM2.5 μg/m³ PM10 μg/m³
Thursday 27 August 2026
17:42 2 20.1 78 2,147,483,647 0.18 0 1.97 13.23 54.66 0 14.96 18.29 28.28
17:41 2 20.1 78 2,147,483,647 0.26 0 1.94 20.89 46.33 0 16.39 18.77 29.43
17:40 2 20.1 78 2,147,483,647 0.21 0 1.94 12.68 54.69 0 13.54 16.88 26.57
17:39 2 20.1 78 2,147,483,647 0.22 0 1.97 8.31 57.5 0 14.96 18.78 30.03
17:34 2 20.1 78 2,147,483,647 0.2 0 2.42 12.69 51.53 0 13.54 16.42 24.28
17:30 2 20.1 78 2,147,483,647 0.16 0 2.14 20.51 44.25 0 12.83 14.54 22.58
17:27 2 20.1 78 2,147,483,647 0.11 0 2.19 9.16 54.61 0 10.69 13.11 19.1
17:26 2 20.1 78 2,147,483,647 0.12 0 2.14 12.37 50.6 0 10.69 11.69 16.21
17:22 2 20.1 78 2,147,483,647 0.19 0 1.95 12.55 50.1 0 12.83 15.03 22.03
17:21 2 20.1 78 2,147,483,647 0.28 0 2.16 17.2 51.72 0 12.83 13.6 19.13
17:20 2 20.1 78 2,147,483,647 0.33 0 2.06 22.09 42.74 0 12.83 14.55 20.29
17:19 2 20.1 78 2,147,483,647 0.16 0 1.92 12.38 52.3 0 12.83 14.56 22.04
17:18 2 20.1 78 2,147,483,647 0.25 0 2.14 22.43 55.6 0 12.83 15.51 22.04
17:17 2 20.1 78 2,147,483,647 0.31 0 1.99 23.59 35.01 0 11.4 13.61 18.56
17:16 2 20.1 78 2,147,483,647 0.15 0 1.91 13.12 47.09 0 9.98 12.19 17.4
17:13 2 20.2 78 2,147,483,647 0.14 0 1.98 2.1 56.58 0 9.98 13.6 19.13
17:11 2 20.2 78 2,147,483,647 0.48 0 2.29 18.72 47.4 0 12.11 14.08 19.71
17:10 2 20.2 78 2,147,483,647 0.19 0 2.04 22.52 44.26 0 11.4 14.56 20.88
17:06 2 20.2 78 2,147,483,647 0.18 0 1.91 11.18 50.36 0 12.11 12.66 17.4
17:05 2 20.2 78 2,147,483,647 0.32 0 1.91 13.73 49.57 0 13.54 14.57 21.48